Airfield :
LOGIN :

Register | Disclaimer

   EN    FR    IT 

 










Legend :    VFR   Marginal VFR   IFR   Intensive IFR   Very Intensive IFR
Visi :
Ceiling :
>= 8 km
>= 3000ft
5 to 8 km
1000 to 3000 ft
1500m to 5 km
500 to 1000 ft
800 to 1500m
200 to 500 ft
< 800m
< 200 ft
Symbols :   Thunderstorms  Fog  Heavy snow  Heavy precipitations  Wind > 20 kt
SIGMETs :     Misc.  Thunderstorms  Icing  Turbulence  Mountain Waves  Volcanic Ashes







- Airport Elevation : 33 ft
- IATA code : PLQ


EYPA - Palanga

CURRENT METAR :
  • 210550Z VRB03KT 9999 SCT006 21/20 Q1009

EXPIRED METARs :
  • 210520Z 20005KT 180V240 CAVOK 20/19 Q1009
  • 210450Z 18003KT 160V260 9999 FEW003 19/19 Q1009
  • 210420Z 16003KT 5000 BR FEW002 18/18 Q1009
  • 210350Z VRB01KT 5000 BR FEW003 17/17 Q1009
  • 210320Z 07001KT 4200 BR BCFG SCT003 16/16 Q1009

TAF TAF EYPA
Valid from the 21 at 06:00 until the 22 at 06:00 UTC


210501Z 2106/2206 VRB05KT 9000 NSC
TEMPO 2106/2109 SCT003
TEMPO 2109/2115 SCT009
BECMG 2115/2118 BKN003
TEMPO 2200/2206 3000 MIFG BR
No reported NOTAMs for that airfield.



MET'MAP, your aeronautical weather chart ! - Copyright ORBIFLY December 2007 - Disclaimer

ORBIFLY MET'MAP TEAM :

Programming & Development : Alexandra Zaïnal
Concept & Development : Baudouin d'Aumeries
Co-Development & Prog : Marc-Olivier Méhu
Technical & hardware support : Manuel Goepfert

Contact : metmap@orbifly.com




SOURCES & CREDITS :

   NOAA